createdAt,value
2019-02-27T00:01:19.752Z,6.20
2019-02-27T00:03:49.129Z,6.20
2019-02-27T00:06:18.361Z,6.20
2019-02-27T00:08:47.682Z,6.20
2019-02-27T00:11:16.981Z,6.10
2019-02-27T00:13:46.252Z,6.00
2019-02-27T00:16:15.574Z,6.00
2019-02-27T00:18:44.884Z,6.10
2019-02-27T00:21:14.053Z,6.10
2019-02-27T00:23:43.302Z,5.90
2019-02-27T00:26:12.605Z,5.90
2019-02-27T00:28:41.849Z,5.80
2019-02-27T00:31:11.987Z,5.80
2019-02-27T00:33:41.384Z,5.80
2019-02-27T00:36:12.299Z,5.80
2019-02-27T00:38:41.695Z,5.80
2019-02-27T00:41:12.851Z,5.70
2019-02-27T00:43:42.108Z,5.70
2019-02-27T00:46:13.415Z,5.60
2019-02-27T00:48:42.255Z,5.60
2019-02-27T00:51:12.032Z,5.60
2019-02-27T00:53:42.295Z,5.50
2019-02-27T00:56:13.343Z,5.40
2019-02-27T00:58:42.651Z,5.40
2019-02-27T01:01:12.621Z,5.40
2019-02-27T01:03:42.532Z,5.30
2019-02-27T01:06:14.644Z,5.40
2019-02-27T01:08:43.381Z,5.30
2019-02-27T01:11:12.569Z,5.30
2019-02-27T01:13:41.806Z,5.20
2019-02-27T01:16:11.038Z,5.30
2019-02-27T01:18:40.313Z,5.20
2019-02-27T01:21:09.560Z,5.10
2019-02-27T01:23:38.884Z,5.10
2019-02-27T01:26:08.152Z,5.10
2019-02-27T01:28:37.330Z,5.10
2019-02-27T01:31:06.560Z,5.00
2019-02-27T01:33:38.141Z,4.90
2019-02-27T01:36:06.780Z,4.90
2019-02-27T01:38:38.089Z,4.90
2019-02-27T01:41:07.062Z,4.90
2019-02-27T01:43:39.556Z,4.90
2019-02-27T01:46:07.279Z,4.90
2019-02-27T01:48:36.850Z,4.90
2019-02-27T01:51:06.128Z,5.00
2019-02-27T01:53:35.286Z,4.90
2019-02-27T01:56:04.462Z,4.80
2019-02-27T01:58:33.735Z,4.80
2019-02-27T02:01:02.967Z,4.70
2019-02-27T02:03:32.243Z,4.70
2019-02-27T02:06:01.687Z,4.70
2019-02-27T02:08:31.012Z,4.60
2019-02-27T02:11:01.414Z,4.60
2019-02-27T02:14:00.015Z,4.60
2019-02-27T02:17:11.924Z,4.60
2019-02-27T02:20:12.237Z,4.50
2019-02-27T02:22:58.555Z,4.50
2019-02-27T02:26:01.268Z,4.40
2019-02-27T02:29:11.069Z,4.30
2019-02-27T02:32:26.779Z,4.40
2019-02-27T02:35:42.216Z,4.40
2019-02-27T02:38:54.053Z,4.40
2019-02-27T02:41:46.351Z,4.30
2019-02-27T02:44:45.554Z,4.10
2019-02-27T02:47:38.779Z,4.10
2019-02-27T02:51:01.228Z,4.10
2019-02-27T02:54:00.116Z,4.10
2019-02-27T02:56:38.919Z,4.10
2019-02-27T02:59:43.976Z,4.10
2019-02-27T03:02:36.672Z,4.00
2019-02-27T03:05:48.576Z,4.00
2019-02-27T03:08:23.550Z,4.10
2019-02-27T03:11:27.984Z,4.00
2019-02-27T03:14:54.363Z,4.00
2019-02-27T03:18:14.791Z,3.90
2019-02-27T03:21:09.999Z,3.70
2019-02-27T03:24:35.752Z,3.80
2019-02-27T03:27:30.862Z,3.80
2019-02-27T03:30:47.350Z,3.70
2019-02-27T03:33:51.917Z,3.70
2019-02-27T03:36:58.161Z,3.60
2019-02-27T03:40:10.872Z,3.50
2019-02-27T03:42:57.073Z,3.50
2019-02-27T03:45:43.039Z,3.40
2019-02-27T03:48:27.761Z,3.40
2019-02-27T03:51:26.313Z,3.40
2019-02-27T03:54:01.376Z,3.50
2019-02-27T03:57:16.054Z,3.50
2019-02-27T04:00:08.111Z,3.50
2019-02-27T04:03:18.537Z,3.40
2019-02-27T04:06:40.574Z,3.40
2019-02-27T04:09:10.027Z,3.50
2019-02-27T04:11:42.624Z,3.40
2019-02-27T04:14:33.028Z,3.40
2019-02-27T04:17:07.027Z,3.40
2019-02-27T04:19:38.756Z,3.30
2019-02-27T04:22:04.627Z,3.30
2019-02-27T04:24:33.862Z,3.30
2019-02-27T04:27:03.096Z,3.30
2019-02-27T04:29:32.449Z,3.20
2019-02-27T04:32:01.775Z,3.20
2019-02-27T04:34:33.285Z,3.20
2019-02-27T04:37:02.062Z,3.00
2019-02-27T04:39:31.209Z,3.10
2019-02-27T04:42:00.513Z,3.20
2019-02-27T04:44:29.773Z,3.20
2019-02-27T04:46:59.035Z,3.10
2019-02-27T04:49:28.346Z,3.10
2019-02-27T04:51:57.615Z,3.10
2019-02-27T04:54:26.861Z,3.10
2019-02-27T04:56:57.586Z,3.00
2019-02-27T04:59:27.129Z,3.00
2019-02-27T05:01:56.297Z,3.00
2019-02-27T05:04:25.458Z,2.90
2019-02-27T05:06:54.717Z,2.80
2019-02-27T05:09:23.984Z,2.80
2019-02-27T05:11:53.229Z,2.70
2019-02-27T05:14:24.860Z,2.80
2019-02-27T05:16:53.518Z,2.80
2019-02-27T05:19:22.682Z,2.90
2019-02-27T05:21:52.490Z,2.90
2019-02-27T05:24:22.677Z,2.80
2019-02-27T05:26:51.898Z,2.80
2019-02-27T05:29:21.272Z,2.80
2019-02-27T05:31:53.375Z,2.70
2019-02-27T05:34:21.479Z,2.70
2019-02-27T05:36:50.747Z,2.60
2019-02-27T05:39:19.899Z,2.60
2019-02-27T05:41:49.217Z,2.60
2019-02-27T05:44:21.374Z,2.60
2019-02-27T05:46:49.307Z,2.60
2019-02-27T05:49:18.642Z,2.50
2019-02-27T05:51:47.828Z,2.50
2019-02-27T05:54:17.052Z,2.40
2019-02-27T05:56:47.131Z,2.40
2019-02-27T05:59:17.280Z,2.40
2019-02-27T06:01:46.605Z,2.40
2019-02-27T06:04:15.921Z,2.40
2019-02-27T06:06:45.886Z,2.30
2019-02-27T06:09:15.351Z,2.40
2019-02-27T06:11:44.590Z,2.40
2019-02-27T06:14:13.853Z,2.50
2019-02-27T06:16:43.098Z,2.40
2019-02-27T06:19:12.348Z,2.40
2019-02-27T06:21:41.634Z,2.40
2019-02-27T06:24:12.423Z,2.40
2019-02-27T06:26:41.841Z,2.40
2019-02-27T06:29:11.197Z,2.40
2019-02-27T06:31:40.379Z,2.40
2019-02-27T06:34:09.630Z,2.40
2019-02-27T06:36:42.024Z,2.40
2019-02-27T06:39:09.953Z,2.50
2019-02-27T06:41:39.939Z,2.40
2019-02-27T06:44:09.605Z,2.40
2019-02-27T06:46:38.758Z,2.50
2019-02-27T06:49:08.100Z,2.50
2019-02-27T06:51:37.360Z,2.40
2019-02-27T06:54:06.599Z,2.40
2019-02-27T06:56:35.774Z,2.40
2019-02-27T06:59:05.207Z,2.50
2019-02-27T07:01:34.511Z,2.50
2019-02-27T07:04:04.811Z,2.50
2019-02-27T07:06:36.804Z,2.60
2019-02-27T07:09:11.399Z,2.70
2019-02-27T07:11:37.982Z,2.80
2019-02-27T07:14:07.140Z,2.80
2019-02-27T07:16:36.468Z,2.90
2019-02-27T07:19:05.730Z,2.90
2019-02-27T07:21:37.124Z,3.00
2019-02-27T07:24:06.356Z,3.10
2019-02-27T07:26:35.683Z,3.20
2019-02-27T07:29:05.021Z,3.30
2019-02-27T07:31:34.357Z,3.30
2019-02-27T07:34:03.660Z,3.30
2019-02-27T07:36:32.965Z,3.30
2019-02-27T07:39:02.212Z,3.50
2019-02-27T07:41:31.455Z,3.50
2019-02-27T07:44:00.680Z,3.70
2019-02-27T07:46:29.921Z,3.80
2019-02-27T07:49:01.401Z,3.90
2019-02-27T07:51:30.178Z,4.10
2019-02-27T07:53:59.348Z,4.20
2019-02-27T07:56:28.711Z,4.30
2019-02-27T07:58:58.025Z,4.40
2019-02-27T08:01:27.466Z,4.50
2019-02-27T08:03:56.843Z,4.70
2019-02-27T08:06:26.045Z,4.80
2019-02-27T08:08:57.149Z,5.00
2019-02-27T08:11:26.541Z,5.20
2019-02-27T08:13:56.033Z,5.40
2019-02-27T08:16:25.538Z,5.60
2019-02-27T08:18:55.025Z,5.70
2019-02-27T08:21:24.329Z,5.70
2019-02-27T08:23:54.989Z,5.80
2019-02-27T08:26:24.741Z,5.90
2019-02-27T08:28:54.062Z,6.00
2019-02-27T08:31:27.901Z,6.10
2019-02-27T08:33:54.221Z,6.30
2019-02-27T08:36:23.573Z,6.40
2019-02-27T08:38:52.821Z,6.40
2019-02-27T08:41:22.124Z,6.40
2019-02-27T08:43:51.384Z,6.40
2019-02-27T08:46:20.633Z,6.50
2019-02-27T08:48:50.648Z,6.60
2019-02-27T08:51:20.172Z,6.80
2019-02-27T08:53:49.423Z,7.00
2019-02-27T08:56:18.752Z,7.10
2019-02-27T08:58:47.998Z,7.30
2019-02-27T09:01:19.018Z,7.50
2019-02-27T09:03:48.282Z,7.70
2019-02-27T09:06:18.703Z,7.90
2019-02-27T09:08:48.345Z,8.20
2019-02-27T09:11:17.587Z,8.30
2019-02-27T09:13:46.865Z,8.40
2019-02-27T09:16:16.118Z,8.60
2019-02-27T09:18:45.294Z,8.90
2019-02-27T09:21:14.549Z,9.20
2019-02-27T09:23:43.727Z,9.30
2019-02-27T09:26:13.447Z,9.40
2019-02-27T09:28:44.562Z,9.60
2019-02-27T09:31:13.917Z,9.60
2019-02-27T09:33:43.245Z,9.60
2019-02-27T09:36:12.896Z,9.90
2019-02-27T09:38:42.088Z,10.40
2019-02-27T09:41:12.441Z,10.30
2019-02-27T09:43:42.541Z,10.40
2019-02-27T09:46:11.727Z,10.50
2019-02-27T09:48:41.646Z,10.70
2019-02-27T09:51:10.924Z,10.90
2019-02-27T09:53:40.274Z,11.40
2019-02-27T09:56:11.559Z,11.50
2019-02-27T09:58:45.335Z,11.60
2019-02-27T10:01:14.115Z,11.50
2019-02-27T10:03:43.572Z,11.60
2019-02-27T10:06:13.137Z,11.90
2019-02-27T10:08:42.503Z,12.00
2019-02-27T10:11:11.838Z,11.80
2019-02-27T10:13:41.068Z,11.70
2019-02-27T10:16:10.460Z,11.90
2019-02-27T10:18:39.783Z,12.50
2019-02-27T10:21:09.413Z,12.80
2019-02-27T10:23:39.950Z,13.10
2019-02-27T10:26:09.124Z,13.00
2019-02-27T10:28:39.626Z,13.10
2019-02-27T10:31:09.460Z,13.40
2019-02-27T10:33:38.739Z,13.50
2019-02-27T10:36:08.403Z,13.50
2019-02-27T10:38:40.427Z,13.60
2019-02-27T10:41:08.896Z,13.70
2019-02-27T10:43:38.204Z,13.80
2019-02-27T10:46:07.423Z,13.80
2019-02-27T10:48:37.193Z,13.90
2019-02-27T10:51:09.391Z,14.00
2019-02-27T10:53:37.469Z,14.20
2019-02-27T10:56:06.731Z,14.20
2019-02-27T10:58:36.075Z,14.50
2019-02-27T11:01:05.341Z,14.60
2019-02-27T11:03:34.653Z,14.50
2019-02-27T11:06:03.979Z,14.70
2019-02-27T11:08:33.257Z,14.80
2019-02-27T11:11:02.611Z,14.80
2019-02-27T11:13:31.778Z,14.90
2019-02-27T11:16:01.134Z,15.00
2019-02-27T11:18:30.364Z,15.10
2019-02-27T11:20:59.522Z,15.30
2019-02-27T11:23:28.696Z,15.40
2019-02-27T11:25:57.943Z,15.50
2019-02-27T11:28:27.485Z,15.60
2019-02-27T11:30:56.745Z,15.60
2019-02-27T11:33:26.210Z,15.70
2019-02-27T11:35:55.444Z,15.90
2019-02-27T11:38:25.452Z,16.10
2019-02-27T11:40:55.152Z,16.10
2019-02-27T11:43:24.482Z,16.10
2019-02-27T11:45:57.538Z,16.10
2019-02-27T11:48:24.806Z,16.20
2019-02-27T11:50:54.055Z,16.40
2019-02-27T11:53:23.254Z,16.60
2019-02-27T11:55:52.607Z,16.70
2019-02-27T11:58:21.855Z,16.70
2019-02-27T12:00:51.142Z,16.80
2019-02-27T12:03:20.369Z,16.80
2019-02-27T12:05:49.645Z,16.80
2019-02-27T12:08:18.993Z,16.80
2019-02-27T12:10:48.238Z,17.10
2019-02-27T12:13:17.426Z,17.20
2019-02-27T12:15:46.687Z,17.20
2019-02-27T12:18:16.043Z,17.30
2019-02-27T12:20:45.487Z,17.40
2019-02-27T12:23:14.767Z,17.30
2019-02-27T12:25:43.936Z,17.40
2019-02-27T12:28:15.271Z,17.50
2019-02-27T12:30:44.426Z,17.50
2019-02-27T12:33:13.774Z,17.50
2019-02-27T12:35:44.898Z,17.50
2019-02-27T12:38:13.934Z,17.60
2019-02-27T12:40:43.106Z,17.70
2019-02-27T12:43:17.399Z,17.80
2019-02-27T12:45:43.410Z,17.80
2019-02-27T12:48:13.354Z,18.00
2019-02-27T12:50:42.968Z,18.00
2019-02-27T12:53:12.223Z,18.00
2019-02-27T12:55:41.392Z,18.00
2019-02-27T12:58:10.648Z,18.10
2019-02-27T13:00:42.575Z,18.10
2019-02-27T13:03:10.974Z,18.10
2019-02-27T13:05:40.138Z,18.20
2019-02-27T13:08:11.286Z,18.30
2019-02-27T13:10:40.604Z,18.40
2019-02-27T13:13:09.838Z,18.40
2019-02-27T13:15:41.005Z,18.50
2019-02-27T13:18:10.553Z,18.60
2019-02-27T13:20:39.739Z,18.60
2019-02-27T13:23:09.019Z,18.70
2019-02-27T13:25:38.264Z,18.90
2019-02-27T13:28:07.464Z,19.00
2019-02-27T13:30:41.278Z,19.00
2019-02-27T13:33:07.716Z,19.10
2019-02-27T13:35:36.901Z,19.10
2019-02-27T13:38:06.860Z,19.00
2019-02-27T13:40:36.356Z,19.00
2019-02-27T13:43:05.839Z,19.10
2019-02-27T13:45:35.382Z,19.10
2019-02-27T13:48:06.001Z,19.20
2019-02-27T13:50:35.644Z,19.30
2019-02-27T13:53:04.843Z,19.30
2019-02-27T13:55:34.044Z,19.40
2019-02-27T13:58:03.983Z,19.50
2019-02-27T14:00:33.468Z,19.50
2019-02-27T14:03:02.864Z,19.50
2019-02-27T14:05:34.829Z,19.50
2019-02-27T14:08:03.549Z,19.60
2019-02-27T14:10:32.915Z,19.60
2019-02-27T14:13:02.321Z,19.70
2019-02-27T14:15:32.066Z,19.70
2019-02-27T14:18:01.671Z,19.80
2019-02-27T14:20:31.193Z,19.80
2019-02-27T14:23:00.413Z,19.90
2019-02-27T14:25:32.950Z,19.90
2019-02-27T14:28:00.597Z,19.90
2019-02-27T14:30:35.513Z,19.90
2019-02-27T14:33:04.134Z,19.90
2019-02-27T14:35:36.155Z,19.90
2019-02-27T14:38:04.516Z,20.00
2019-02-27T14:40:37.627Z,20.00
2019-02-27T14:43:05.799Z,19.90
2019-02-27T14:45:39.847Z,19.90
2019-02-27T14:48:06.102Z,19.90
2019-02-27T14:50:35.266Z,20.20
2019-02-27T14:53:04.543Z,20.50
2019-02-27T14:55:36.273Z,20.60
2019-02-27T14:58:04.628Z,21.50
2019-02-27T15:00:33.938Z,22.70
2019-02-27T15:03:03.287Z,23.40
2019-02-27T15:05:32.599Z,23.50
2019-02-27T15:08:02.088Z,24.20
2019-02-27T15:10:31.408Z,24.60
2019-02-27T15:13:00.735Z,25.00
2019-02-27T15:15:30.362Z,25.40
2019-02-27T15:17:59.780Z,25.60
2019-02-27T15:20:29.035Z,25.30
2019-02-27T15:22:58.685Z,24.90
2019-02-27T15:25:28.072Z,24.70
2019-02-27T15:27:59.628Z,24.70
2019-02-27T15:30:29.109Z,24.60
2019-02-27T15:33:03.813Z,24.80
2019-02-27T15:35:30.129Z,25.10
2019-02-27T15:37:59.338Z,25.00
2019-02-27T15:40:29.861Z,25.00
2019-02-27T15:42:59.488Z,24.90
2019-02-27T15:45:29.432Z,24.70
2019-02-27T15:47:59.107Z,24.70
2019-02-27T15:50:28.442Z,24.60
2019-02-27T15:52:57.752Z,24.90
2019-02-27T15:55:27.062Z,25.20
2019-02-27T15:57:56.258Z,24.90
2019-02-27T16:00:25.911Z,24.70
2019-02-27T16:02:55.176Z,24.90
2019-02-27T16:05:30.117Z,24.90
2019-02-27T16:07:55.533Z,24.90
2019-02-27T16:10:24.815Z,24.90
2019-02-27T16:12:54.061Z,24.90
2019-02-27T16:15:23.521Z,24.70
2019-02-27T16:17:53.137Z,24.50
2019-02-27T16:20:22.603Z,24.30
2019-02-27T16:22:51.793Z,24.10
2019-02-27T16:25:22.015Z,24.00
2019-02-27T16:27:51.285Z,23.80
2019-02-27T16:30:22.537Z,24.00
2019-02-27T16:32:52.001Z,23.80
2019-02-27T16:35:21.279Z,23.40
2019-02-27T16:37:56.633Z,23.50
2019-02-27T16:40:21.582Z,23.40
2019-02-27T16:42:51.071Z,22.90
2019-02-27T16:45:22.828Z,22.40
2019-02-27T16:47:53.993Z,21.90
2019-02-27T16:50:24.776Z,22.00
2019-02-27T16:52:54.881Z,21.30
2019-02-27T16:55:24.489Z,20.50
2019-02-27T16:57:56.465Z,19.70
2019-02-27T17:00:27.347Z,19.00
2019-02-27T17:02:57.145Z,18.40
2019-02-27T17:05:26.700Z,17.90
2019-02-27T17:08:00.314Z,17.40
2019-02-27T17:10:29.476Z,17.00
2019-02-27T17:12:59.357Z,16.70
2019-02-27T17:15:34.603Z,16.40
2019-02-27T17:18:00.031Z,16.20
2019-02-27T17:20:29.682Z,15.90
2019-02-27T17:22:58.943Z,15.70
2019-02-27T17:25:29.970Z,15.50
2019-02-27T17:27:59.249Z,15.40
2019-02-27T17:30:30.257Z,15.20
2019-02-27T17:33:01.451Z,15.00
2019-02-27T17:35:30.447Z,14.80
2019-02-27T17:37:59.721Z,14.70
2019-02-27T17:40:29.379Z,14.50
2019-02-27T17:42:58.834Z,14.40
2019-02-27T17:45:28.521Z,14.20
2019-02-27T17:47:58.026Z,14.10
2019-02-27T17:50:30.937Z,14.10
2019-02-27T17:52:58.199Z,13.90
2019-02-27T17:55:27.561Z,13.90
2019-02-27T17:57:58.492Z,13.80
2019-02-27T18:00:32.980Z,13.70
2019-02-27T18:03:04.983Z,13.60
2019-02-27T18:05:33.137Z,13.40
2019-02-27T18:08:03.486Z,13.30
2019-02-27T18:10:37.203Z,13.30
2019-02-27T18:13:03.940Z,13.10
2019-02-27T18:15:33.325Z,13.00
2019-02-27T18:18:02.511Z,12.90
2019-02-27T18:20:32.237Z,12.80
2019-02-27T18:23:01.744Z,12.70
2019-02-27T18:25:31.019Z,12.60
2019-02-27T18:28:00.334Z,12.60
2019-02-27T18:30:29.629Z,12.50
2019-02-27T18:33:01.011Z,12.50
2019-02-27T18:35:29.960Z,12.40
2019-02-27T18:37:59.289Z,12.30
2019-02-27T18:40:28.634Z,12.20
2019-02-27T18:42:57.890Z,12.10
2019-02-27T18:45:27.138Z,11.90
2019-02-27T18:47:58.592Z,11.90
2019-02-27T18:50:27.598Z,11.80
2019-02-27T18:52:56.839Z,11.80
2019-02-27T18:55:29.549Z,11.70
2019-02-27T18:57:57.144Z,11.60
2019-02-27T19:00:26.537Z,11.40
2019-02-27T19:02:56.175Z,11.40
2019-02-27T19:05:25.735Z,11.30
2019-02-27T19:07:55.262Z,11.20
2019-02-27T19:10:24.630Z,11.20
2019-02-27T19:12:53.977Z,11.10
2019-02-27T19:15:23.499Z,11.00
2019-02-27T19:17:52.772Z,10.90
2019-02-27T19:20:25.219Z,10.90
2019-02-27T19:22:55.400Z,10.90
2019-02-27T19:25:24.747Z,11.00
2019-02-27T19:27:54.187Z,11.00
2019-02-27T19:30:24.158Z,11.00
2019-02-27T19:32:58.314Z,10.90
2019-02-27T19:35:24.525Z,10.80
2019-02-27T19:37:54.260Z,10.80
2019-02-27T19:40:24.021Z,10.70
2019-02-27T19:42:58.431Z,10.60
2019-02-27T19:45:28.187Z,10.50
2019-02-27T19:47:57.687Z,10.40
2019-02-27T19:50:27.547Z,10.40
2019-02-27T19:52:56.873Z,10.40
2019-02-27T19:55:27.547Z,10.30
2019-02-27T19:57:57.043Z,10.20
2019-02-27T20:00:33.607Z,10.10
2019-02-27T20:03:01.134Z,10.10
2019-02-27T20:05:29.472Z,10.00
2019-02-27T20:07:59.044Z,9.90
2019-02-27T20:10:30.955Z,9.80
2019-02-27T20:12:59.846Z,9.70
2019-02-27T20:15:29.238Z,9.70
2019-02-27T20:17:58.805Z,9.60
2019-02-27T20:20:29.959Z,9.50
2019-02-27T20:22:59.374Z,9.40
2019-02-27T20:25:28.982Z,9.40
2019-02-27T20:27:58.951Z,9.40
2019-02-27T20:30:28.542Z,9.40
2019-02-27T20:32:59.817Z,9.40
2019-02-27T20:35:28.749Z,9.40
2019-02-27T20:37:58.018Z,9.30
2019-02-27T20:40:27.943Z,9.20
2019-02-27T20:42:57.741Z,9.10
2019-02-27T20:45:27.135Z,9.10
2019-02-27T20:48:15.412Z,9.00
2019-02-27T20:50:45.436Z,9.00
2019-02-27T20:53:49.155Z,8.90
2019-02-27T20:56:18.468Z,8.90
2019-02-27T20:58:51.051Z,8.70
2019-02-27T21:01:18.825Z,8.70
2019-02-27T21:03:48.065Z,8.60
2019-02-27T21:06:17.243Z,8.60
2019-02-27T21:08:46.539Z,8.50
2019-02-27T21:11:15.814Z,8.50
2019-02-27T21:14:06.987Z,8.50
2019-02-27T21:16:37.022Z,8.40
2019-02-27T21:19:06.211Z,8.30
2019-02-27T21:21:35.504Z,8.20
2019-02-27T21:24:06.291Z,8.20
2019-02-27T21:26:35.885Z,8.20
2019-02-27T21:29:08.195Z,8.20
2019-02-27T21:31:36.155Z,8.10
2019-02-27T21:34:05.498Z,8.00
2019-02-27T21:36:36.675Z,7.90
2019-02-27T21:39:06.428Z,7.80
2019-02-27T21:41:35.652Z,7.80
2019-02-27T21:44:04.993Z,7.70
2019-02-27T21:46:34.503Z,7.70
2019-02-27T21:49:03.815Z,7.60
2019-02-27T21:51:32.996Z,7.50
2019-02-27T21:54:03.839Z,7.50
2019-02-27T21:56:33.268Z,7.40
2019-02-27T21:59:04.747Z,7.40
2019-02-27T22:01:33.545Z,7.40
2019-02-27T22:04:02.807Z,7.40
2019-02-27T22:06:32.100Z,7.30
2019-02-27T22:09:01.448Z,7.30
2019-02-27T22:11:30.688Z,7.20
2019-02-27T22:13:59.912Z,7.20
2019-02-27T22:16:30.511Z,7.20
2019-02-27T22:19:00.188Z,7.10
2019-02-27T22:21:31.371Z,7.10
2019-02-27T22:24:00.535Z,7.00
2019-02-27T22:26:29.755Z,7.00
2019-02-27T22:28:59.002Z,7.00
2019-02-27T22:31:28.258Z,6.90
2019-02-27T22:33:57.569Z,6.90
2019-02-27T22:36:26.820Z,6.90
2019-02-27T22:38:59.977Z,6.80
2019-02-27T22:41:27.088Z,6.70
2019-02-27T22:43:56.475Z,6.70
2019-02-27T22:46:25.886Z,6.60
2019-02-27T22:48:55.150Z,6.70
2019-02-27T22:51:24.476Z,6.60
2019-02-27T22:53:53.753Z,6.60
2019-02-27T22:56:23.011Z,6.60
2019-02-27T22:58:52.260Z,6.50
2019-02-27T23:01:33.172Z,6.50
2019-02-27T23:04:05.423Z,6.40
2019-02-27T23:06:34.600Z,6.30
2019-02-27T23:09:05.403Z,6.30
2019-02-27T23:11:36.798Z,6.30
2019-02-27T23:14:06.257Z,6.30
2019-02-27T23:16:35.644Z,6.30
2019-02-27T23:19:05.062Z,6.30
2019-02-27T23:21:34.294Z,6.30
2019-02-27T23:24:04.201Z,6.20
2019-02-27T23:26:33.919Z,6.10
2019-02-27T23:29:05.583Z,6.10
2019-02-27T23:31:34.187Z,6.10
2019-02-27T23:34:03.882Z,6.10
2019-02-27T23:36:33.222Z,6.10
2019-02-27T23:39:02.551Z,6.10
2019-02-27T23:41:31.851Z,6.10
2019-02-27T23:44:01.166Z,6.00
2019-02-27T23:46:30.416Z,5.90
2019-02-27T23:48:59.657Z,5.90
2019-02-27T23:51:28.903Z,5.90
2019-02-27T23:53:58.560Z,5.80
2019-02-27T23:56:29.138Z,5.80
2019-02-27T23:59:02.393Z,5.70
